Time;durP1;ratioP1;P1;durP2;ratioP2;P2;SDS_P1;SDS_P2;PMS_P1;PMS_P2;Temp;Humidity;BMP_temperature;BMP_pressure;BME280_temperature;BME280_humidity;BME280_pressure;Samples;Min_cycle;Max_cycle;Signal;HPM_P1;HPM_P2
2023/07/04 00:02:08;;;;;;;5.57;4.00;;;;;;;;;;4403007;32;316692;-79
2023/07/04 00:04:35;;;;;;;7.97;4.35;;;;;;;;;;4392519;32;316898;-80
2023/07/04 00:07:05;;;;;;;5.15;3.87;;;;;;;;;;4402710;32;316690;-79
2023/07/04 00:09:32;;;;;;;11.18;4.32;;;;;;;;;;4391046;32;316758;-79
2023/07/04 00:11:59;;;;;;;4.50;3.85;;;;;;;;;;4402895;32;317983;-82
2023/07/04 00:14:27;;;;;;;7.32;3.80;;;;;;;;;;4392323;32;316718;-87
2023/07/04 00:16:54;;;;;;;8.55;3.78;;;;;;;;;;4401141;32;344583;-86
2023/07/04 00:19:21;;;;;;;6.97;4.05;;;;;;;;;;4392190;32;316767;-79
2023/07/04 00:21:49;;;;;;;6.57;4.18;;;;;;;;;;4402873;32;316667;-87
2023/07/04 00:24:18;;;;;;;8.27;4.72;;;;;;;;;;4401656;32;316448;-85
2023/07/04 00:26:46;;;;;;;7.18;4.72;;;;;;;;;;4387984;32;415986;-87
2023/07/04 00:29:14;;;;;;;6.45;4.28;;;;;;;;;;4400736;32;317404;-79
2023/07/04 00:31:41;;;;;;;5.12;4.32;;;;;;;;;;4391308;32;316606;-86
2023/07/04 00:34:09;;;;;;;10.52;4.57;;;;;;;;;;4402291;32;316938;-87
2023/07/04 00:36:37;;;;;;;6.55;4.57;;;;;;;;;;4390763;32;317728;-86
2023/07/04 00:39:04;;;;;;;5.10;3.65;;;;;;;;;;4401664;32;316847;-79
2023/07/04 00:41:35;;;;;;;5.87;4.25;;;;;;;;;;4391384;32;316620;-80
2023/07/04 00:44:09;;;;;;;7.45;4.65;;;;;;;;;;4402624;32;317122;-79
2023/07/04 00:46:40;;;;;;;7.22;4.50;;;;;;;;;;4391730;32;317525;-80
2023/07/04 00:49:19;;;;;;;7.05;3.92;;;;;;;;;;4401493;32;317022;-87
2023/07/04 00:51:50;;;;;;;7.03;4.70;;;;;;;;;;4388959;32;416196;-87
2023/07/04 00:54:19;;;;;;;7.03;4.62;;;;;;;;;;4402529;32;317479;-87
2023/07/04 00:56:48;;;;;;;8.98;4.95;;;;;;;;;;4388897;32;385651;-82
2023/07/04 00:59:16;;;;;;;10.98;4.75;;;;;;;;;;4401801;32;316894;-80
2023/07/04 01:01:43;;;;;;;7.93;4.43;;;;;;;;;;4392126;32;318150;-80
2023/07/04 01:04:11;;;;;;;9.90;4.00;;;;;;;;;;4401837;32;316934;-79
2023/07/04 01:06:46;;;;;;;6.32;4.50;;;;;;;;;;4390512;32;316862;-79
2023/07/04 01:09:17;;;;;;;9.93;4.80;;;;;;;;;;4399849;32;316648;-80
2023/07/04 01:11:49;;;;;;;10.10;4.47;;;;;;;;;;4389365;32;324982;-83
2023/07/04 01:14:27;;;;;;;6.72;4.68;;;;;;;;;;4402066;32;317780;-87
2023/07/04 01:16:54;;;;;;;4.72;4.18;;;;;;;;;;4389041;32;416111;-85
2023/07/04 01:19:28;;;;;;;6.00;4.25;;;;;;;;;;4388534;32;316845;-87
2023/07/04 01:22:05;;;;;;;5.55;4.53;;;;;;;;;;4401614;32;316770;-87
2023/07/04 01:24:41;;;;;;;6.13;4.23;;;;;;;;;;4388905;32;353824;-85
2023/07/04 01:27:10;;;;;;;4.37;3.78;;;;;;;;;;4400691;32;316799;-87
2023/07/04 01:29:38;;;;;;;11.50;4.30;;;;;;;;;;4388912;32;316711;-80
2023/07/04 01:32:08;;;;;;;8.73;4.47;;;;;;;;;;4400360;32;317681;-80
2023/07/04 01:34:36;;;;;;;5.22;4.03;;;;;;;;;;4390470;32;316906;-81
2023/07/04 01:37:04;;;;;;;7.45;4.45;;;;;;;;;;4400538;32;316671;-81
2023/07/04 01:39:32;;;;;;;6.18;4.75;;;;;;;;;;4388993;32;316756;-87
2023/07/04 01:42:00;;;;;;;6.35;4.87;;;;;;;;;;4401632;32;316916;-87
2023/07/04 01:44:29;;;;;;;6.65;5.15;;;;;;;;;;4390686;32;316909;-79
2023/07/04 01:46:56;;;;;;;7.70;4.20;;;;;;;;;;4399836;32;316908;-79
2023/07/04 01:49:24;;;;;;;6.87;4.97;;;;;;;;;;4391472;32;316975;-79
2023/07/04 01:51:51;;;;;;;9.38;4.60;;;;;;;;;;4400146;32;316840;-86
2023/07/04 01:54:19;;;;;;;7.15;4.28;;;;;;;;;;4401754;32;316678;-88
2023/07/04 01:56:48;;;;;;;6.28;4.40;;;;;;;;;;4387079;32;416142;-86
2023/07/04 01:59:16;;;;;;;6.40;4.28;;;;;;;;;;4400765;32;316777;-87
2023/07/04 02:01:44;;;;;;;4.82;4.30;;;;;;;;;;4390027;32;317153;-80
2023/07/04 02:04:12;;;;;;;5.50;4.25;;;;;;;;;;4401644;32;316877;-79
2023/07/04 02:06:39;;;;;;;9.45;4.75;;;;;;;;;;4389958;32;316594;-88
2023/07/04 02:09:07;;;;;;;7.97;4.22;;;;;;;;;;4401196;32;316465;-80
2023/07/04 02:11:34;;;;;;;5.32;3.95;;;;;;;;;;4390859;32;316802;-82
2023/07/04 02:14:01;;;;;;;7.90;4.90;;;;;;;;;;4401339;32;316796;-87
2023/07/04 02:16:29;;;;;;;5.65;4.80;;;;;;;;;;4391207;32;316872;-85
2023/07/04 02:18:58;;;;;;;6.05;5.45;;;;;;;;;;4401510;32;316753;-85
2023/07/04 02:21:26;;;;;;;10.18;5.30;;;;;;;;;;4390237;32;317065;-83
2023/07/04 02:23:54;;;;;;;8.23;4.45;;;;;;;;;;4399844;32;317968;-80
2023/07/04 02:26:21;;;;;;;17.45;5.50;;;;;;;;;;4388338;32;316809;-86
2023/07/04 02:28:49;;;;;;;8.75;5.18;;;;;;;;;;4401109;32;317619;-81
2023/07/04 02:31:17;;;;;;;6.22;5.22;;;;;;;;;;4399512;32;330126;-85
2023/07/04 02:33:44;;;;;;;7.35;5.12;;;;;;;;;;4391407;32;316848;-80
2023/07/04 02:36:13;;;;;;;6.12;4.65;;;;;;;;;;4400302;32;316672;-80
2023/07/04 02:38:40;;;;;;;10.00;6.30;;;;;;;;;;4390349;32;316780;-80
2023/07/04 02:41:08;;;;;;;14.98;10.35;;;;;;;;;;4401045;32;317809;-80
2023/07/04 02:43:36;;;;;;;18.90;12.63;;;;;;;;;;4389550;32;318840;-80
2023/07/04 02:46:05;;;;;;;18.37;12.40;;;;;;;;;;4399816;32;319022;-80
2023/07/04 02:48:32;;;;;;;22.33;14.50;;;;;;;;;;4389392;32;319135;-80
2023/07/04 02:51:01;;;;;;;43.87;27.23;;;;;;;;;;4400490;32;318829;-80
2023/07/04 02:53:29;;;;;;;23.25;17.15;;;;;;;;;;4390301;32;318953;-80
2023/07/04 02:55:58;;;;;;;19.70;11.82;;;;;;;;;;4400153;32;318991;-79
2023/07/04 02:58:25;;;;;;;13.88;10.25;;;;;;;;;;4392887;32;318836;-80
2023/07/04 03:00:53;;;;;;;18.67;11.27;;;;;;;;;;4400964;32;318879;-86
2023/07/04 03:03:21;;;;;;;15.82;10.48;;;;;;;;;;4389403;32;319047;-81
2023/07/04 03:05:49;;;;;;;11.88;8.10;;;;;;;;;;4403582;32;319048;-88
2023/07/04 03:08:16;;;;;;;11.27;8.48;;;;;;;;;;4401544;32;317861;-80
2023/07/04 03:10:47;;;;;;;11.48;7.85;;;;;;;;;;4393365;32;317775;-80
2023/07/04 03:13:15;;;;;;;19.62;9.88;;;;;;;;;;4402521;32;317837;-80
2023/07/04 03:15:42;;;;;;;15.93;10.48;;;;;;;;;;4393045;32;317953;-80
2023/07/04 03:18:10;;;;;;;15.95;10.90;;;;;;;;;;4403470;32;318862;-86
2023/07/04 03:20:38;;;;;;;17.83;11.00;;;;;;;;;;4390616;32;318702;-80
2023/07/04 03:23:05;;;;;;;16.65;11.48;;;;;;;;;;4403526;32;318889;-80
2023/07/04 03:25:33;;;;;;;18.90;13.02;;;;;;;;;;4391371;32;318894;-88
2023/07/04 03:28:01;;;;;;;22.00;11.52;;;;;;;;;;4403544;32;319106;-80
2023/07/04 03:30:29;;;;;;;15.23;11.25;;;;;;;;;;4392554;32;318844;-83
2023/07/04 03:32:56;;;;;;;13.98;9.98;;;;;;;;;;4402868;32;318803;-88
2023/07/04 03:35:24;;;;;;;16.12;11.38;;;;;;;;;;4390790;32;317790;-88
2023/07/04 03:37:51;;;;;;;18.52;9.32;;;;;;;;;;4402111;32;319087;-81
2023/07/04 03:40:19;;;;;;;8.98;6.62;;;;;;;;;;4400695;32;317723;-80
2023/07/04 03:42:46;;;;;;;11.27;6.25;;;;;;;;;;4389271;32;416037;-87
2023/07/04 03:45:15;;;;;;;9.55;5.55;;;;;;;;;;4401124;32;317904;-80
2023/07/04 03:47:43;;;;;;;15.40;5.90;;;;;;;;;;4390754;32;316641;-84
2023/07/04 03:50:13;;;;;;;9.90;6.50;;;;;;;;;;4401893;32;317786;-88
2023/07/04 03:52:41;;;;;;;12.30;6.80;;;;;;;;;;4391524;32;316865;-80
2023/07/04 03:55:09;;;;;;;14.60;6.80;;;;;;;;;;4401775;32;318140;-79
2023/07/04 03:57:36;;;;;;;12.57;7.47;;;;;;;;;;4391675;32;317830;-82
2023/07/04 04:00:05;;;;;;;17.55;8.40;;;;;;;;;;4400529;32;317661;-80
2023/07/04 04:02:34;;;;;;;14.45;9.23;;;;;;;;;;4392505;32;317901;-84
2023/07/04 04:05:01;;;;;;;12.32;8.95;;;;;;;;;;4401462;32;317851;-79
2023/07/04 04:07:29;;;;;;;11.65;7.82;;;;;;;;;;4392895;32;317938;-80
2023/07/04 04:09:56;;;;;;;14.27;7.25;;;;;;;;;;4399704;32;317936;-79
2023/07/04 04:12:24;;;;;;;10.95;6.15;;;;;;;;;;4392865;32;317863;-79
2023/07/04 04:14:51;;;;;;;13.10;5.50;;;;;;;;;;4402340;32;317716;-81
2023/07/04 04:17:19;;;;;;;10.52;5.97;;;;;;;;;;4401561;32;317750;-86
2023/07/04 04:19:47;;;;;;;8.50;6.55;;;;;;;;;;4388994;32;417197;-79
2023/07/04 04:22:15;;;;;;;8.63;6.05;;;;;;;;;;4402257;32;316648;-79
2023/07/04 04:24:43;;;;;;;8.77;6.55;;;;;;;;;;4391988;32;316572;-85
2023/07/04 04:27:12;;;;;;;13.13;6.45;;;;;;;;;;4402996;32;316870;-80
2023/07/04 04:29:40;;;;;;;8.13;6.62;;;;;;;;;;4390307;32;317851;-80
2023/07/04 04:32:07;;;;;;;9.15;6.28;;;;;;;;;;4402636;32;316781;-79
2023/07/04 04:34:34;;;;;;;15.93;7.00;;;;;;;;;;4390036;32;316794;-80
2023/07/04 04:37:04;;;;;;;7.12;6.18;;;;;;;;;;4401095;32;318200;-82
2023/07/04 04:39:31;;;;;;;7.90;6.30;;;;;;;;;;4390195;32;316823;-78
2023/07/04 04:41:59;;;;;;;9.55;6.30;;;;;;;;;;4400237;32;316692;-87
2023/07/04 04:44:26;;;;;;;15.20;7.80;;;;;;;;;;4391946;32;316596;-78
2023/07/04 04:46:54;;;;;;;10.77;7.35;;;;;;;;;;4401365;32;317563;-78
2023/07/04 04:49:22;;;;;;;14.45;7.70;;;;;;;;;;4391647;32;317695;-79
2023/07/04 04:51:51;;;;;;;11.35;7.07;;;;;;;;;;4391498;32;317767;-79
2023/07/04 04:54:22;;;;;;;11.38;8.73;;;;;;;;;;4401812;32;343459;-78
2023/07/04 04:56:50;;;;;;;16.05;9.07;;;;;;;;;;4391554;32;318057;-78
2023/07/04 04:59:17;;;;;;;12.37;8.27;;;;;;;;;;4401357;32;317858;-79
2023/07/04 05:01:45;;;;;;;12.95;9.10;;;;;;;;;;4391986;32;317873;-78
2023/07/04 05:04:12;;;;;;;14.35;8.50;;;;;;;;;;4401209;32;317760;-78
2023/07/04 05:06:39;;;;;;;23.50;8.95;;;;;;;;;;4391811;32;317947;-87
2023/07/04 05:09:07;;;;;;;12.20;8.02;;;;;;;;;;4402370;32;318083;-87
2023/07/04 05:11:35;;;;;;;14.45;7.95;;;;;;;;;;4389553;32;318064;-81
2023/07/04 05:14:03;;;;;;;19.37;8.48;;;;;;;;;;4402193;32;317813;-87
2023/07/04 05:16:30;;;;;;;15.63;8.10;;;;;;;;;;4400733;32;316846;-87
2023/07/04 05:18:58;;;;;;;10.43;7.90;;;;;;;;;;4391149;32;317683;-87
2023/07/04 05:21:26;;;;;;;13.90;7.22;;;;;;;;;;4399915;32;327680;-79
2023/07/04 05:23:54;;;;;;;8.63;7.57;;;;;;;;;;4391998;32;317854;-86
2023/07/04 05:26:24;;;;;;;8.98;7.37;;;;;;;;;;4401432;32;317041;-85
2023/07/04 05:28:54;;;;;;;10.70;6.75;;;;;;;;;;4389178;32;316889;-85
2023/07/04 05:31:24;;;;;;;11.00;6.68;;;;;;;;;;4401230;32;317883;-79
2023/07/04 05:33:52;;;;;;;7.90;6.95;;;;;;;;;;4390190;32;317879;-87
2023/07/04 05:36:21;;;;;;;10.95;6.95;;;;;;;;;;4400957;32;315549;-77
2023/07/04 05:38:50;;;;;;;14.02;6.95;;;;;;;;;;4391270;32;317916;-87
2023/07/04 05:41:21;;;;;;;12.43;7.20;;;;;;;;;;4398978;32;351550;-79
2023/07/04 05:43:48;;;;;;;9.38;6.97;;;;;;;;;;4389738;32;345591;-82
2023/07/04 05:46:19;;;;;;;24.42;7.70;;;;;;;;;;4400897;32;316863;-84
2023/07/04 05:48:46;;;;;;;8.20;6.37;;;;;;;;;;4390724;32;317847;-87
2023/07/04 05:51:15;;;;;;;11.57;6.90;;;;;;;;;;4401073;32;317147;-89
2023/07/04 05:53:47;;;;;;;7.40;6.20;;;;;;;;;;4390731;32;335746;-82
2023/07/04 05:56:15;;;;;;;9.93;6.18;;;;;;;;;;4399164;32;316902;-84
2023/07/04 05:58:45;;;;;;;14.48;6.57;;;;;;;;;;4390759;32;316999;-84
2023/07/04 06:01:14;;;;;;;6.60;5.22;;;;;;;;;;4398509;32;337241;-84
2023/07/04 06:03:44;;;;;;;11.38;5.97;;;;;;;;;;4391076;32;316669;-84
2023/07/04 06:06:18;;;;;;;29.95;6.10;;;;;;;;;;4399340;32;317649;-83
2023/07/04 06:08:46;;;;;;;14.05;6.97;;;;;;;;;;4391243;32;318140;-84
2023/07/04 06:11:14;;;;;;;6.62;5.87;;;;;;;;;;4398828;32;317718;-83
2023/07/04 06:13:41;;;;;;;12.45;6.68;;;;;;;;;;4389885;32;315704;-84
2023/07/04 06:16:10;;;;;;;8.63;6.93;;;;;;;;;;4399733;32;317937;-83
2023/07/04 06:18:37;;;;;;;14.02;6.90;;;;;;;;;;4390303;32;316887;-82
2023/07/04 06:21:11;;;;;;;8.52;6.90;;;;;;;;;;4398998;32;318140;-83
2023/07/04 06:23:40;;;;;;;7.30;6.45;;;;;;;;;;4390479;32;317069;-82
2023/07/04 06:26:09;;;;;;;9.55;5.93;;;;;;;;;;4400140;32;316693;-83
2023/07/04 06:28:37;;;;;;;11.30;6.80;;;;;;;;;;4386378;32;316899;-83
2023/07/04 06:31:05;;;;;;;10.65;6.57;;;;;;;;;;4399787;32;318021;-83
2023/07/04 06:33:33;;;;;;;7.72;6.10;;;;;;;;;;4402522;32;317884;-83
2023/07/04 06:36:01;;;;;;;10.55;6.45;;;;;;;;;;4388462;32;416105;-84
2023/07/04 06:38:30;;;;;;;12.65;7.05;;;;;;;;;;4402454;32;317640;-85
2023/07/04 06:40:58;;;;;;;14.65;5.90;;;;;;;;;;4390876;32;318071;-82
2023/07/04 06:43:26;;;;;;;16.20;5.78;;;;;;;;;;4402688;32;317890;-85
2023/07/04 06:45:54;;;;;;;6.12;5.53;;;;;;;;;;4393593;32;318100;-83
2023/07/04 06:48:23;;;;;;;8.75;6.62;;;;;;;;;;4403378;32;316756;-83
2023/07/04 06:50:58;;;;;;;10.13;5.15;;;;;;;;;;4392427;32;317078;-84
2023/07/04 06:53:25;;;;;;;5.95;4.72;;;;;;;;;;4403187;32;317768;-83
2023/07/04 06:55:54;;;;;;;7.93;5.32;;;;;;;;;;4393366;32;316640;-84
2023/07/04 06:58:22;;;;;;;8.52;5.53;;;;;;;;;;4403826;32;317295;-85
2023/07/04 07:00:56;;;;;;;11.02;5.97;;;;;;;;;;4391208;32;316797;-82
2023/07/04 07:03:24;;;;;;;7.20;5.72;;;;;;;;;;4403679;32;317811;-82
2023/07/04 07:05:51;;;;;;;8.70;5.35;;;;;;;;;;4390783;32;317051;-85
2023/07/04 07:08:19;;;;;;;9.32;5.20;;;;;;;;;;4403610;32;316655;-82
2023/07/04 07:10:56;;;;;;;9.93;6.00;;;;;;;;;;4391368;32;350381;-83
2023/07/04 07:13:23;;;;;;;12.98;5.57;;;;;;;;;;4403382;32;333530;-82
2023/07/04 07:15:51;;;;;;;8.23;4.80;;;;;;;;;;4393374;32;317703;-82
2023/07/04 07:18:18;;;;;;;6.82;4.87;;;;;;;;;;4402745;32;316788;-83
2023/07/04 07:20:46;;;;;;;5.03;4.18;;;;;;;;;;4392843;32;316776;-85
2023/07/04 07:23:13;;;;;;;6.40;4.32;;;;;;;;;;4402704;32;316708;-84
2023/07/04 07:25:40;;;;;;;7.15;4.55;;;;;;;;;;4392056;32;316668;-83
2023/07/04 07:28:09;;;;;;;17.90;5.30;;;;;;;;;;4403723;32;316724;-82
2023/07/04 07:30:36;;;;;;;6.78;4.35;;;;;;;;;;4392399;32;317635;-82
2023/07/04 07:33:04;;;;;;;5.28;4.57;;;;;;;;;;4403192;32;316977;-82
2023/07/04 07:35:32;;;;;;;7.37;4.40;;;;;;;;;;4401921;32;316612;-83
2023/07/04 07:37:59;;;;;;;7.35;4.65;;;;;;;;;;4388676;32;415779;-83
2023/07/04 07:40:26;;;;;;;11.88;4.78;;;;;;;;;;4403075;32;316908;-84
2023/07/04 07:42:54;;;;;;;5.37;4.78;;;;;;;;;;4392231;32;317731;-84
2023/07/04 07:45:23;;;;;;;13.30;5.00;;;;;;;;;;4402024;32;316930;-84
2023/07/04 07:47:51;;;;;;;8.40;5.18;;;;;;;;;;4392037;32;317523;-84
2023/07/04 07:50:19;;;;;;;12.73;5.35;;;;;;;;;;4401942;32;316886;-84
2023/07/04 07:52:46;;;;;;;8.23;4.80;;;;;;;;;;4392014;32;318054;-82
2023/07/04 07:55:14;;;;;;;9.85;5.45;;;;;;;;;;4402684;32;316607;-82
2023/07/04 07:57:41;;;;;;;10.63;5.85;;;;;;;;;;4393289;32;316853;-83
2023/07/04 08:00:10;;;;;;;5.25;3.60;;;;;;;;;;4402645;32;317622;-83
2023/07/04 08:02:39;;;;;;;6.60;4.75;;;;;;;;;;4388639;32;349973;-84
2023/07/04 08:05:07;;;;;;;9.85;4.18;;;;;;;;;;4402012;32;316734;-84
2023/07/04 08:07:34;;;;;;;5.90;4.43;;;;;;;;;;4390705;32;316677;-83
2023/07/04 08:10:01;;;;;;;10.00;4.40;;;;;;;;;;4402546;32;316786;-83
2023/07/04 08:12:29;;;;;;;10.18;5.22;;;;;;;;;;4402948;32;318070;-84
2023/07/04 08:14:56;;;;;;;7.35;4.87;;;;;;;;;;4389827;32;317799;-84
2023/07/04 08:17:24;;;;;;;9.90;4.57;;;;;;;;;;4402200;32;316662;-83
2023/07/04 08:19:54;;;;;;;5.25;4.75;;;;;;;;;;4391392;32;317150;-84
2023/07/04 08:22:21;;;;;;;6.60;5.60;;;;;;;;;;4402933;32;316746;-83
2023/07/04 08:24:48;;;;;;;5.18;4.47;;;;;;;;;;4389447;32;316756;-83
2023/07/04 08:27:16;;;;;;;8.77;6.03;;;;;;;;;;4402717;32;316880;-83
2023/07/04 08:29:43;;;;;;;6.57;4.78;;;;;;;;;;4389768;32;316616;-82
2023/07/04 08:32:11;;;;;;;6.87;4.93;;;;;;;;;;4402746;32;317061;-93
2023/07/04 08:34:38;;;;;;;6.28;4.50;;;;;;;;;;4389076;32;316786;-84
2023/07/04 08:37:09;;;;;;;5.70;4.00;;;;;;;;;;4402464;32;316736;-84
2023/07/04 08:39:37;;;;;;;10.07;4.60;;;;;;;;;;4391811;32;317050;-84
2023/07/04 08:42:07;;;;;;;7.22;5.18;;;;;;;;;;4402430;32;317878;-80
2023/07/04 08:44:42;;;;;;;10.80;5.15;;;;;;;;;;4391581;32;316816;-81
2023/07/04 08:47:12;;;;;;;6.97;4.75;;;;;;;;;;4401431;32;317671;-87
2023/07/04 08:49:43;;;;;;;6.80;4.10;;;;;;;;;;4388808;32;339106;-81
2023/07/04 08:52:21;;;;;;;6.07;4.40;;;;;;;;;;4400027;32;316686;-86
2023/07/04 08:54:49;;;;;;;6.37;4.93;;;;;;;;;;4387774;32;334170;-80
2023/07/04 08:57:29;;;;;;;5.60;4.28;;;;;;;;;;4399591;32;316754;-82
2023/07/04 09:00:04;;;;;;;9.63;5.62;;;;;;;;;;4390645;32;316866;-80
2023/07/04 09:02:55;;;;;;;4.78;4.28;;;;;;;;;;4400450;32;316733;-80
2023/07/04 09:05:30;;;;;;;5.70;5.07;;;;;;;;;;4388225;32;417253;-87
2023/07/04 09:08:05;;;;;;;5.72;4.93;;;;;;;;;;4389621;32;316634;-80
2023/07/04 09:10:38;;;;;;;12.85;5.35;;;;;;;;;;4401660;32;316708;-80
2023/07/04 09:13:10;;;;;;;5.47;4.50;;;;;;;;;;4388412;32;418258;-81
2023/07/04 09:15:42;;;;;;;12.60;4.78;;;;;;;;;;4391396;32;317031;-82
2023/07/04 09:18:18;;;;;;;9.40;4.93;;;;;;;;;;4401847;32;317466;-81
2023/07/04 09:20:51;;;;;;;6.32;5.12;;;;;;;;;;4389861;32;316792;-81
2023/07/04 09:23:23;;;;;;;8.38;5.00;;;;;;;;;;4402165;32;316607;-81
2023/07/04 09:25:51;;;;;;;5.57;4.87;;;;;;;;;;4391243;32;316619;-81
2023/07/04 09:28:19;;;;;;;7.50;5.35;;;;;;;;;;4401281;32;316632;-80
2023/07/04 09:30:47;;;;;;;7.30;4.75;;;;;;;;;;4391313;32;316766;-82
2023/07/04 09:33:15;;;;;;;13.93;5.28;;;;;;;;;;4401039;32;316686;-81
2023/07/04 09:35:44;;;;;;;4.68;4.18;;;;;;;;;;4391446;32;317621;-80
2023/07/04 09:38:11;;;;;;;9.30;4.43;;;;;;;;;;4400505;32;316573;-81
2023/07/04 09:40:46;;;;;;;5.18;4.57;;;;;;;;;;4390799;32;316719;-82
2023/07/04 09:43:27;;;;;;;8.68;4.75;;;;;;;;;;4400827;32;316722;-81
2023/07/04 09:46:11;;;;;;;8.02;5.12;;;;;;;;;;4391441;32;317035;-81
2023/07/04 09:48:39;;;;;;;5.65;4.72;;;;;;;;;;4391738;32;316617;-83
2023/07/04 09:51:20;;;;;;;6.87;5.35;;;;;;;;;;4400554;32;317258;-80
2023/07/04 09:53:48;;;;;;;10.68;5.40;;;;;;;;;;4391477;32;316725;-88
2023/07/04 09:56:26;;;;;;;5.75;5.12;;;;;;;;;;4399111;32;317810;-82
2023/07/04 09:59:12;;;;;;;10.25;4.80;;;;;;;;;;4390856;32;316654;-80
2023/07/04 10:01:41;;;;;;;6.05;5.03;;;;;;;;;;4389565;32;317918;-81
2023/07/04 10:04:09;;;;;;;6.35;4.97;;;;;;;;;;4401085;32;316935;-81
2023/07/04 10:06:38;;;;;;;14.82;5.90;;;;;;;;;;4389495;32;316693;-81
2023/07/04 10:09:18;;;;;;;6.35;5.28;;;;;;;;;;4399109;32;317698;-81
2023/07/04 10:11:50;;;;;;;9.65;5.20;;;;;;;;;;4390641;32;316819;-81
2023/07/04 10:14:31;;;;;;;10.13;4.95;;;;;;;;;;4404073;32;316801;-81
2023/07/04 10:17:08;;;;;;;5.93;4.53;;;;;;;;;;4393942;32;329818;-82
2023/07/04 10:19:41;;;;;;;5.95;4.80;;;;;;;;;;4387074;32;316622;-89
2023/07/04 10:22:09;;;;;;;5.72;5.22;;;;;;;;;;4393099;32;316732;-89
2023/07/04 10:24:36;;;;;;;4.75;4.35;;;;;;;;;;4401403;32;316336;-87
2023/07/04 10:27:10;;;;;;;5.70;5.17;;;;;;;;;;4390998;32;316700;-82
2023/07/04 10:29:42;;;;;;;9.23;4.82;;;;;;;;;;4399957;32;316719;-81
2023/07/04 10:32:14;;;;;;;5.72;4.45;;;;;;;;;;4390234;32;316764;-82
2023/07/04 10:34:43;;;;;;;11.20;5.90;;;;;;;;;;4399956;32;316657;-81
2023/07/04 10:37:18;;;;;;;8.25;5.35;;;;;;;;;;4390639;32;317898;-89
2023/07/04 10:39:46;;;;;;;7.35;5.37;;;;;;;;;;4398476;32;316683;-89
2023/07/04 10:42:18;;;;;;;8.10;5.37;;;;;;;;;;4388204;32;317038;-89
2023/07/04 10:44:53;;;;;;;6.90;5.55;;;;;;;;;;4400430;32;321869;-89
2023/07/04 10:47:25;;;;;;;5.35;4.70;;;;;;;;;;4386513;32;416027;-89
2023/07/04 10:49:57;;;;;;;5.82;5.00;;;;;;;;;;4389757;32;317133;-87
2023/07/04 10:52:31;;;;;;;6.47;5.03;;;;;;;;;;4401263;32;316668;-88
2023/07/04 10:54:59;;;;;;;10.17;5.67;;;;;;;;;;4392629;32;339709;-89
2023/07/04 10:57:33;;;;;;;7.35;4.65;;;;;;;;;;4403331;32;317781;-89
2023/07/04 11:00:07;;;;;;;10.93;5.85;;;;;;;;;;4391539;32;316312;-87
2023/07/04 11:02:41;;;;;;;6.22;5.07;;;;;;;;;;4403274;32;318118;-79
2023/07/04 11:05:13;;;;;;;6.53;4.97;;;;;;;;;;4385960;32;316835;-84
2023/07/04 11:07:43;;;;;;;7.65;4.78;;;;;;;;;;4400474;32;316902;-88
2023/07/04 11:10:13;;;;;;;4.90;4.43;;;;;;;;;;4389665;32;316853;-88
2023/07/04 11:12:43;;;;;;;8.80;5.37;;;;;;;;;;4401180;32;317088;-88
2023/07/04 11:15:22;;;;;;;12.60;6.25;;;;;;;;;;4389115;32;316803;-80
2023/07/04 11:17:50;;;;;;;8.43;6.05;;;;;;;;;;4400430;32;317841;-80
2023/07/04 11:20:21;;;;;;;7.50;4.53;;;;;;;;;;4389974;32;416269;-87
2023/07/04 11:22:58;;;;;;;6.68;4.82;;;;;;;;;;4403523;32;316948;-88
2023/07/04 11:25:29;;;;;;;5.60;4.62;;;;;;;;;;4390505;32;415900;-86
2023/07/04 11:28:26;;;;;;;5.65;4.35;;;;;;;;;;4392669;32;316690;-87
2023/07/04 11:31:08;;;;;;;9.35;3.87;;;;;;;;;;4392242;32;316812;-86
2023/07/04 11:33:39;;;;;;;5.78;4.00;;;;;;;;;;4400636;32;316738;-88
2023/07/04 11:36:09;;;;;;;4.55;3.60;;;;;;;;;;4392768;32;316740;-87
2023/07/04 11:38:44;;;;;;;5.18;3.62;;;;;;;;;;4401323;32;347852;-87
2023/07/04 11:41:11;;;;;;;4.62;3.80;;;;;;;;;;4391034;32;336958;-87
2023/07/04 11:43:46;;;;;;;7.57;3.87;;;;;;;;;;4402941;32;316713;-88
2023/07/04 11:46:25;;;;;;;4.50;3.60;;;;;;;;;;4391652;32;316710;-87
2023/07/04 11:48:55;;;;;;;5.22;4.32;;;;;;;;;;4403072;32;316711;-88
2023/07/04 11:51:24;;;;;;;4.68;3.65;;;;;;;;;;4388411;32;416576;-86
2023/07/04 11:53:56;;;;;;;3.70;3.22;;;;;;;;;;4402837;32;316449;-87
2023/07/04 11:56:36;;;;;;;5.60;3.60;;;;;;;;;;4389144;32;415856;-86
2023/07/04 11:59:37;;;;;;;4.65;3.75;;;;;;;;;;4392566;32;316808;-87
2023/07/04 12:02:14;;;;;;;3.05;2.70;;;;;;;;;;4392238;32;316617;-87
2023/07/04 12:04:49;;;;;;;5.15;3.30;;;;;;;;;;4399921;32;316825;-87
2023/07/04 12:07:33;;;;;;;7.10;3.35;;;;;;;;;;4392246;32;316594;-89
2023/07/04 12:10:09;;;;;;;4.85;4.07;;;;;;;;;;4390723;32;316634;-87
2023/07/04 12:12:38;;;;;;;4.72;4.18;;;;;;;;;;4402678;32;316734;-86
2023/07/04 12:15:10;;;;;;;3.80;3.40;;;;;;;;;;4390598;32;316662;-87
2023/07/04 12:17:39;;;;;;;5.40;3.72;;;;;;;;;;4402725;32;316626;-87
2023/07/04 12:20:11;;;;;;;9.05;4.35;;;;;;;;;;4392442;32;316694;-88
2023/07/04 12:22:44;;;;;;;8.68;4.85;;;;;;;;;;4402614;32;316598;-87
2023/07/04 12:25:21;;;;;;;6.97;4.30;;;;;;;;;;4389456;32;316634;-87
2023/07/04 12:27:49;;;;;;;7.20;4.30;;;;;;;;;;4402684;32;316659;-87
2023/07/04 12:30:18;;;;;;;7.10;3.72;;;;;;;;;;4389256;32;316688;-87
2023/07/04 12:32:45;;;;;;;5.03;3.92;;;;;;;;;;4399456;32;351659;-87
2023/07/04 12:35:18;;;;;;;6.90;4.12;;;;;;;;;;4390824;32;316484;-87
2023/07/04 12:37:49;;;;;;;7.72;3.95;;;;;;;;;;4401180;32;316799;-87
2023/07/04 12:40:18;;;;;;;5.07;3.20;;;;;;;;;;4389942;32;316863;-86
2023/07/04 12:42:46;;;;;;;7.37;3.70;;;;;;;;;;4400607;32;316748;-87
2023/07/04 12:45:23;;;;;;;5.93;3.58;;;;;;;;;;4391201;32;316669;-87
2023/07/04 12:47:52;;;;;;;6.07;4.05;;;;;;;;;;4400937;32;316769;-90
2023/07/04 12:50:20;;;;;;;4.82;3.25;;;;;;;;;;4388947;32;386913;-89
2023/07/04 12:52:50;;;;;;;4.43;2.60;;;;;;;;;;4401993;32;316552;-89
2023/07/04 12:55:25;;;;;;;2.85;2.40;;;;;;;;;;4390766;32;316871;-88
2023/07/04 12:57:54;;;;;;;7.35;3.10;;;;;;;;;;4390915;32;316557;-83
2023/07/04 13:00:29;;;;;;;4.57;3.17;;;;;;;;;;4400924;32;316869;-82
2023/07/04 13:02:58;;;;;;;4.65;2.80;;;;;;;;;;4390279;32;346611;-83
2023/07/04 13:05:30;;;;;;;9.63;2.70;;;;;;;;;;4400701;32;316893;-82
2023/07/04 13:07:58;;;;;;;3.03;2.53;;;;;;;;;;4391345;32;316595;-83
2023/07/04 13:10:31;;;;;;;3.20;2.53;;;;;;;;;;4400584;32;352286;-83
2023/07/04 13:12:59;;;;;;;2.65;2.22;;;;;;;;;;4389498;32;357550;-86
2023/07/04 13:15:32;;;;;;;2.85;2.40;;;;;;;;;;4401759;32;316974;-83
2023/07/04 13:18:02;;;;;;;2.65;2.03;;;;;;;;;;4390674;32;316821;-83
2023/07/04 13:20:31;;;;;;;5.40;2.80;;;;;;;;;;4400704;32;333344;-83
2023/07/04 13:23:19;;;;;;;4.28;2.45;;;;;;;;;;4391295;32;333673;-83
2023/07/04 13:25:48;;;;;;;3.25;2.58;;;;;;;;;;4400690;32;316592;-83
2023/07/04 13:28:22;;;;;;;3.10;2.08;;;;;;;;;;4388305;32;316703;-83
2023/07/04 13:30:51;;;;;;;3.55;2.25;;;;;;;;;;4400119;32;316731;-83
2023/07/04 13:33:29;;;;;;;2.05;1.85;;;;;;;;;;4388931;32;416333;-83
2023/07/04 13:36:08;;;;;;;2.60;2.00;;;;;;;;;;4390732;32;317189;-83
2023/07/04 13:38:36;;;;;;;3.40;2.17;;;;;;;;;;4401891;32;317022;-83
2023/07/04 13:41:03;;;;;;;4.62;2.87;;;;;;;;;;4383844;32;316713;-83
2023/07/04 13:43:31;;;;;;;5.18;3.05;;;;;;;;;;4400677;32;316726;-83
2023/07/04 13:46:00;;;;;;;6.22;2.70;;;;;;;;;;4390227;32;316988;-81
2023/07/04 13:48:28;;;;;;;4.47;2.35;;;;;;;;;;4401155;32;316736;-82
2023/07/04 13:50:56;;;;;;;6.62;2.87;;;;;;;;;;4390627;32;316909;-83
2023/07/04 13:53:24;;;;;;;2.40;2.17;;;;;;;;;;4400861;32;317322;-82
2023/07/04 13:55:52;;;;;;;3.45;2.25;;;;;;;;;;4401349;32;316734;-82
2023/07/04 13:58:20;;;;;;;2.53;2.20;;;;;;;;;;4387361;32;416239;-82
2023/07/04 14:00:48;;;;;;;3.95;2.58;;;;;;;;;;4401141;32;317025;-81
2023/07/04 14:03:17;;;;;;;3.45;2.37;;;;;;;;;;4390444;32;317010;-82
2023/07/04 14:05:45;;;;;;;3.03;2.03;;;;;;;;;;4400479;32;317073;-81
2023/07/04 14:08:13;;;;;;;2.40;2.20;;;;;;;;;;4389661;32;316673;-83
2023/07/04 14:10:40;;;;;;;3.00;2.12;;;;;;;;;;4401471;32;316967;-81
2023/07/04 14:13:08;;;;;;;3.97;2.75;;;;;;;;;;4390526;32;316668;-82
2023/07/04 14:15:35;;;;;;;9.70;3.22;;;;;;;;;;4399465;32;316736;-82
2023/07/04 14:18:03;;;;;;;3.78;2.20;;;;;;;;;;4391239;32;316790;-83
2023/07/04 14:20:33;;;;;;;6.05;2.92;;;;;;;;;;4401265;32;316671;-82
2023/07/04 14:23:00;;;;;;;5.87;2.10;;;;;;;;;;4390697;32;316812;-83
2023/07/04 14:25:28;;;;;;;2.30;2.00;;;;;;;;;;4400082;32;316718;-82
2023/07/04 14:27:55;;;;;;;2.53;1.92;;;;;;;;;;4390852;32;317051;-83
2023/07/04 14:30:22;;;;;;;3.50;2.40;;;;;;;;;;4399828;32;316751;-81
2023/07/04 14:32:50;;;;;;;2.45;2.10;;;;;;;;;;4401052;32;316559;-81
2023/07/04 14:35:17;;;;;;;4.25;2.78;;;;;;;;;;4389933;32;327899;-81
2023/07/04 14:37:46;;;;;;;3.40;2.60;;;;;;;;;;4400750;32;317088;-81
2023/07/04 14:40:14;;;;;;;3.53;3.05;;;;;;;;;;4390641;32;316884;-81
2023/07/04 14:42:41;;;;;;;4.05;2.60;;;;;;;;;;4401240;32;317073;-81